Time;durP1;ratioP1;P1;durP2;ratioP2;P2;SDS_P1;SDS_P2;PMS_P1;PMS_P2;Temp;Humidity;BMP_temperature;BMP_pressure;BME280_temperature;BME280_humidity;BME280_pressure;Samples;Min_cycle;Max_cycle;Signal;HPM_P1;HPM_P2
2024/02/27 00:01:47;;;;;;;22.33;14.27;;;4.80;99.90;;;;;;5043480;28;20898;-58
2024/02/27 00:04:15;;;;;;;22.10;14.30;;;4.80;99.90;;;;;;5036176;28;20472;-59
2024/02/27 00:06:43;;;;;;;24.13;13.47;;;4.70;99.90;;;;;;5041529;28;20478;-59
2024/02/27 00:09:17;;;;;;;20.73;13.23;;;4.70;99.90;;;;;;5039150;28;20525;-58
2024/02/27 00:11:46;;;;;;;20.17;12.80;;;4.70;99.90;;;;;;5037025;28;20478;-58
2024/02/27 00:14:14;;;;;;;18.80;12.53;;;4.70;99.90;;;;;;5039252;28;20467;-59
2024/02/27 00:16:42;;;;;;;21.67;13.40;;;4.70;99.90;;;;;;5036393;28;20494;-58
2024/02/27 00:19:10;;;;;;;18.87;12.60;;;4.70;99.90;;;;;;5038759;28;20494;-58
2024/02/27 00:21:38;;;;;;;21.90;13.37;;;4.70;99.90;;;;;;5040979;28;20483;-59
2024/02/27 00:24:06;;;;;;;19.57;13.53;;;4.70;99.90;;;;;;5038431;28;20853;-59
2024/02/27 00:26:36;;;;;;;21.90;13.53;;;4.70;99.90;;;;;;5039883;28;20495;-58
2024/02/27 00:29:04;;;;;;;21.20;13.80;;;4.70;99.90;;;;;;5039263;28;20934;-59
2024/02/27 00:31:32;;;;;;;21.33;13.27;;;4.80;99.90;;;;;;5033332;28;20474;-59
2024/02/27 00:34:00;;;;;;;18.43;13.20;;;4.80;99.90;;;;;;5034401;28;20554;-58
2024/02/27 00:36:28;;;;;;;22.10;14.40;;;4.80;99.90;;;;;;5037828;28;20903;-59
2024/02/27 00:38:57;;;;;;;21.10;13.73;;;4.80;99.90;;;;;;5034660;28;20485;-59
2024/02/27 00:41:25;;;;;;;23.90;15.10;;;4.80;99.90;;;;;;5039951;28;20475;-59
2024/02/27 00:43:55;;;;;;;20.33;15.20;;;4.80;99.90;;;;;;5041083;28;20478;-59
2024/02/27 00:46:22;;;;;;;23.57;14.30;;;4.80;99.90;;;;;;5036827;28;20512;-59
2024/02/27 00:48:50;;;;;;;22.73;15.40;;;4.80;99.90;;;;;;5037698;28;20591;-59
2024/02/27 00:51:19;;;;;;;21.77;14.17;;;4.80;99.90;;;;;;5039778;28;20495;-59
2024/02/27 00:53:47;;;;;;;23.13;13.90;;;4.80;99.90;;;;;;5038019;28;20544;-59
2024/02/27 00:56:15;;;;;;;20.30;13.40;;;4.80;99.90;;;;;;5037495;28;20617;-59
2024/02/27 00:58:43;;;;;;;22.53;13.40;;;4.80;99.90;;;;;;5040961;28;20569;-58
2024/02/27 01:01:13;;;;;;;22.43;13.83;;;4.80;99.90;;;;;;5039153;28;21811;-59
2024/02/27 01:03:41;;;;;;;20.43;12.90;;;4.80;99.90;;;;;;5034824;28;20552;-58
2024/02/27 01:06:09;;;;;;;21.27;13.53;;;4.80;99.90;;;;;;5035532;28;20550;-58
2024/02/27 01:08:37;;;;;;;22.23;14.50;;;4.80;99.90;;;;;;5036287;28;20497;-58
2024/02/27 01:11:06;;;;;;;26.00;14.93;;;4.80;99.90;;;;;;5035394;28;20558;-58
2024/02/27 01:13:34;;;;;;;24.40;14.63;;;4.80;99.90;;;;;;5030707;28;20479;-58
2024/02/27 01:16:03;;;;;;;20.47;13.60;;;4.80;99.90;;;;;;5034633;28;20505;-57
2024/02/27 01:18:32;;;;;;;18.60;12.60;;;4.80;99.90;;;;;;5036539;28;20576;-59
2024/02/27 01:21:02;;;;;;;21.53;13.33;;;4.80;99.90;;;;;;5034937;28;20979;-58
2024/02/27 01:23:30;;;;;;;20.20;12.93;;;4.80;99.90;;;;;;5035748;28;20521;-58
2024/02/27 01:25:58;;;;;;;19.60;13.60;;;4.80;99.90;;;;;;5033682;28;20582;-58
2024/02/27 01:28:26;;;;;;;21.07;13.57;;;4.80;99.90;;;;;;5030261;28;21046;-58
2024/02/27 01:30:54;;;;;;;19.10;12.40;;;4.80;99.90;;;;;;5031990;28;20466;-57
2024/02/27 01:33:22;;;;;;;17.37;12.70;;;4.80;99.90;;;;;;5034845;28;21521;-58
2024/02/27 01:35:51;;;;;;;20.30;13.50;;;4.90;99.90;;;;;;5029859;28;20489;-60
2024/02/27 01:38:19;;;;;;;21.30;14.00;;;4.90;99.90;;;;;;5027710;28;20774;-61
2024/02/27 01:40:47;;;;;;;21.40;13.77;;;4.90;99.90;;;;;;5028803;28;20486;-61
2024/02/27 01:43:24;;;;;;;18.40;12.50;;;4.90;99.90;;;;;;5036932;28;20561;-60
2024/02/27 01:46:14;;;;;;;20.67;13.93;;;4.80;99.90;;;;;;5034357;28;20483;-63
2024/02/27 01:48:43;;;;;;;21.30;13.43;;;4.80;99.90;;;;;;5032793;28;20862;-60
2024/02/27 01:51:14;;;;;;;20.27;13.37;;;4.80;99.90;;;;;;5035443;28;20911;-60
2024/02/27 01:53:45;;;;;;;21.73;14.50;;;4.90;99.90;;;;;;5036568;28;20466;-59
2024/02/27 01:56:15;;;;;;;22.57;14.97;;;4.90;99.90;;;;;;5034478;28;20578;-60
2024/02/27 01:58:44;;;;;;;24.60;14.77;;;4.90;99.90;;;;;;5034909;28;20498;-60
2024/02/27 02:01:14;;;;;;;21.43;13.83;;;4.90;99.90;;;;;;5033661;28;20580;-59
2024/02/27 02:03:42;;;;;;;22.20;14.40;;;4.90;99.90;;;;;;5031652;28;20562;-62
2024/02/27 02:06:10;;;;;;;23.80;14.63;;;4.90;99.90;;;;;;5030326;28;20483;-58
2024/02/27 02:08:40;;;;;;;19.70;13.63;;;4.90;99.90;;;;;;5035348;28;21098;-59
2024/02/27 02:11:12;;;;;;;24.30;15.03;;;4.90;99.90;;;;;;5034904;28;20884;-58
2024/02/27 02:13:41;;;;;;;22.40;14.50;;;4.90;99.90;;;;;;5034025;28;20475;-58
2024/02/27 02:16:09;;;;;;;23.10;14.70;;;4.90;99.90;;;;;;5032764;28;20563;-58
2024/02/27 02:18:37;;;;;;;22.77;15.03;;;4.90;99.90;;;;;;5033792;28;20574;-59
2024/02/27 02:21:06;;;;;;;24.47;15.67;;;4.90;99.90;;;;;;5030274;28;20998;-59
2024/02/27 02:23:34;;;;;;;21.10;14.67;;;4.90;99.90;;;;;;5032367;28;20478;-57
2024/02/27 02:26:03;;;;;;;24.53;15.53;;;4.90;99.90;;;;;;5033473;28;20478;-59
2024/02/27 02:28:31;;;;;;;23.87;15.17;;;4.90;99.90;;;;;;5034072;28;20582;-58
2024/02/27 02:30:59;;;;;;;20.00;15.73;;;4.90;99.90;;;;;;5026418;28;20462;-59
2024/02/27 02:33:27;;;;;;;23.83;15.40;;;5.00;99.90;;;;;;5030370;28;20477;-58
2024/02/27 02:35:55;;;;;;;25.20;16.57;;;5.00;99.90;;;;;;5031615;28;20497;-59
2024/02/27 02:38:25;;;;;;;23.47;15.00;;;5.00;99.90;;;;;;5034061;28;20486;-58
2024/02/27 02:40:53;;;;;;;23.43;14.53;;;5.00;99.90;;;;;;5035316;28;20529;-58
2024/02/27 02:43:21;;;;;;;24.80;16.37;;;5.00;99.90;;;;;;5035295;28;20544;-59
2024/02/27 02:45:49;;;;;;;23.10;15.20;;;4.90;99.90;;;;;;5035210;28;20571;-58
2024/02/27 02:48:17;;;;;;;24.77;16.23;;;4.90;99.90;;;;;;5031341;28;20506;-58
2024/02/27 02:50:46;;;;;;;22.67;14.17;;;5.00;99.90;;;;;;5037273;28;21010;-59
2024/02/27 02:53:14;;;;;;;22.13;15.57;;;5.00;99.90;;;;;;5036507;28;20467;-59
2024/02/27 02:55:45;;;;;;;22.33;15.70;;;5.00;99.90;;;;;;5037874;28;20490;-59
2024/02/27 02:58:13;;;;;;;24.23;15.40;;;5.00;99.90;;;;;;5036583;28;20875;-59
2024/02/27 03:00:41;;;;;;;25.43;16.00;;;5.00;99.90;;;;;;5036586;28;20577;-59
2024/02/27 03:03:09;;;;;;;22.30;15.00;;;5.00;99.90;;;;;;5034816;28;20786;-59
2024/02/27 03:05:37;;;;;;;22.33;15.57;;;5.00;99.90;;;;;;5032459;28;20544;-61
2024/02/27 03:08:06;;;;;;;21.90;14.93;;;5.10;99.90;;;;;;5036287;28;20509;-61
2024/02/27 03:10:34;;;;;;;19.87;13.97;;;5.00;99.90;;;;;;5037432;28;20463;-62
2024/02/27 03:13:03;;;;;;;22.20;15.47;;;5.00;99.90;;;;;;5034641;28;20494;-60
2024/02/27 03:15:31;;;;;;;22.13;14.60;;;5.10;99.90;;;;;;5034323;28;20541;-61
2024/02/27 03:18:00;;;;;;;22.30;14.30;;;5.10;99.90;;;;;;5032816;28;20572;-62
2024/02/27 03:20:28;;;;;;;25.67;14.77;;;5.10;99.90;;;;;;5033184;28;20470;-61
2024/02/27 03:22:56;;;;;;;19.87;13.50;;;5.10;99.90;;;;;;5031663;28;20469;-61
2024/02/27 03:25:24;;;;;;;18.17;13.03;;;5.10;99.90;;;;;;5032789;28;20602;-62
2024/02/27 03:27:52;;;;;;;19.33;13.53;;;5.00;99.90;;;;;;5033523;28;20596;-60
2024/02/27 03:30:21;;;;;;;19.70;13.10;;;5.00;99.90;;;;;;5034905;28;20995;-62
2024/02/27 03:32:49;;;;;;;18.00;12.50;;;5.00;99.90;;;;;;5034648;28;20960;-61
2024/02/27 03:35:17;;;;;;;17.20;12.20;;;4.90;99.90;;;;;;5031240;28;20470;-62
2024/02/27 03:37:45;;;;;;;21.27;14.63;;;5.00;99.90;;;;;;5026155;28;20490;-62
2024/02/27 03:40:13;;;;;;;17.37;12.20;;;4.90;99.90;;;;;;5035075;28;20906;-60
2024/02/27 03:42:41;;;;;;;20.20;12.50;;;4.90;99.90;;;;;;5035358;28;20502;-61
2024/02/27 03:45:10;;;;;;;16.37;11.77;;;4.90;99.90;;;;;;5034388;28;20470;-61
2024/02/27 03:47:40;;;;;;;18.47;12.80;;;4.90;99.90;;;;;;5035363;28;20499;-63
2024/02/27 03:50:08;;;;;;;16.30;11.50;;;4.90;99.90;;;;;;5034357;28;20568;-62
2024/02/27 03:52:36;;;;;;;18.77;12.07;;;4.90;99.90;;;;;;5035410;28;20486;-61
2024/02/27 03:55:05;;;;;;;17.90;12.30;;;4.90;99.90;;;;;;5031495;28;20562;-58
2024/02/27 03:57:33;;;;;;;19.10;12.83;;;4.90;99.90;;;;;;5033319;28;20523;-60
2024/02/27 04:00:03;;;;;;;18.13;11.80;;;4.90;99.90;;;;;;5035464;28;20896;-60
2024/02/27 04:02:31;;;;;;;18.77;13.43;;;4.90;99.90;;;;;;5033851;28;20495;-60
2024/02/27 04:05:00;;;;;;;17.60;11.80;;;5.00;99.90;;;;;;5034589;28;22550;-60
2024/02/27 04:07:28;;;;;;;19.50;12.70;;;4.90;99.90;;;;;;5030261;28;20486;-61
2024/02/27 04:09:56;;;;;;;19.07;12.20;;;4.90;99.90;;;;;;5037280;28;20511;-60
2024/02/27 04:12:24;;;;;;;19.90;12.90;;;4.90;99.90;;;;;;5035999;28;23869;-61
2024/02/27 04:14:53;;;;;;;21.37;11.80;;;4.90;99.90;;;;;;5035001;28;20974;-61
2024/02/27 04:17:20;;;;;;;21.73;12.00;;;4.90;99.90;;;;;;5033345;28;21281;-61
2024/02/27 04:19:48;;;;;;;19.60;11.70;;;4.80;99.90;;;;;;5034298;28;20471;-61
2024/02/27 04:22:18;;;;;;;19.53;12.57;;;4.80;99.90;;;;;;5030798;28;20486;-62
2024/02/27 04:24:46;;;;;;;16.77;11.30;;;4.80;99.90;;;;;;5037048;28;20655;-61
2024/02/27 04:27:14;;;;;;;15.93;10.90;;;4.80;99.90;;;;;;5031154;28;20493;-61
2024/02/27 04:29:42;;;;;;;17.77;11.00;;;4.80;99.90;;;;;;5036523;28;20974;-61
2024/02/27 04:32:11;;;;;;;20.17;12.33;;;4.80;99.90;;;;;;5032853;28;20470;-61
2024/02/27 04:34:39;;;;;;;19.40;11.73;;;4.80;99.90;;;;;;5033905;28;20463;-60
2024/02/27 04:37:07;;;;;;;16.07;11.40;;;4.80;99.90;;;;;;5033964;28;20596;-61
2024/02/27 04:39:36;;;;;;;19.13;12.20;;;4.80;99.90;;;;;;5038920;28;20590;-60
2024/02/27 04:42:04;;;;;;;17.07;11.50;;;4.80;99.90;;;;;;5037273;28;21014;-61
2024/02/27 04:44:32;;;;;;;17.17;11.13;;;4.70;99.90;;;;;;5031452;28;20822;-61
2024/02/27 04:47:00;;;;;;;18.57;12.80;;;4.80;99.90;;;;;;5036866;28;20493;-60
2024/02/27 04:49:28;;;;;;;19.30;11.90;;;4.70;99.90;;;;;;5035800;28;20518;-60
2024/02/27 04:51:56;;;;;;;18.70;11.80;;;4.80;99.90;;;;;;5038993;28;20474;-61
2024/02/27 04:54:24;;;;;;;18.50;11.43;;;4.80;99.90;;;;;;5039692;28;20559;-61
2024/02/27 04:56:55;;;;;;;19.03;11.03;;;4.80;99.90;;;;;;5037408;28;20906;-61
2024/02/27 04:59:23;;;;;;;18.43;12.07;;;4.80;99.90;;;;;;5038826;28;20535;-60
2024/02/27 05:01:51;;;;;;;17.63;10.70;;;4.70;99.90;;;;;;5036047;28;20482;-61
2024/02/27 05:04:21;;;;;;;19.63;12.30;;;4.80;99.90;;;;;;5040319;28;20500;-60
2024/02/27 05:06:49;;;;;;;18.93;11.87;;;4.70;99.90;;;;;;5037251;28;20486;-61
2024/02/27 05:09:17;;;;;;;18.07;11.43;;;4.70;99.90;;;;;;5037252;28;20493;-60
2024/02/27 05:11:45;;;;;;;19.27;12.70;;;4.70;99.90;;;;;;5037958;28;20472;-61
2024/02/27 05:14:14;;;;;;;16.00;12.17;;;4.70;99.90;;;;;;5037138;28;20510;-61
2024/02/27 05:16:42;;;;;;;19.80;13.17;;;4.70;99.90;;;;;;5038493;28;20475;-60
2024/02/27 05:19:10;;;;;;;16.20;11.47;;;4.70;99.90;;;;;;5037811;28;21037;-60
2024/02/27 05:21:38;;;;;;;17.80;11.97;;;4.60;99.90;;;;;;5038384;28;20467;-60
2024/02/27 05:24:07;;;;;;;19.40;12.80;;;4.60;99.90;;;;;;5034391;28;20493;-60
2024/02/27 05:26:36;;;;;;;19.20;12.30;;;4.60;99.90;;;;;;5030214;28;20664;-60
2024/02/27 05:29:04;;;;;;;19.53;12.37;;;4.60;99.90;;;;;;5037260;28;20585;-60
2024/02/27 05:31:34;;;;;;;19.37;11.73;;;4.60;99.90;;;;;;5029639;28;20934;-59
2024/02/27 05:34:02;;;;;;;18.00;11.97;;;4.60;99.90;;;;;;5036789;28;20550;-59
2024/02/27 05:36:31;;;;;;;16.87;12.00;;;4.60;99.90;;;;;;5034395;28;20483;-59
2024/02/27 05:38:59;;;;;;;15.63;11.47;;;4.60;99.90;;;;;;5036130;28;20515;-59
2024/02/27 05:41:27;;;;;;;15.60;11.60;;;4.60;99.90;;;;;;5033634;28;20498;-59
2024/02/27 05:43:55;;;;;;;15.80;11.53;;;4.60;99.90;;;;;;5035738;28;20522;-59
2024/02/27 05:46:23;;;;;;;16.50;11.90;;;4.60;99.90;;;;;;5031536;28;20494;-59
2024/02/27 05:48:52;;;;;;;18.70;11.70;;;4.50;99.90;;;;;;5032299;28;20501;-58
2024/02/27 05:51:20;;;;;;;18.77;13.00;;;4.50;99.90;;;;;;5029978;28;20550;-59
2024/02/27 05:53:49;;;;;;;14.90;11.47;;;4.50;99.90;;;;;;5035610;28;20893;-59
2024/02/27 05:56:20;;;;;;;15.77;11.10;;;4.50;99.90;;;;;;5031281;28;20573;-59
2024/02/27 05:58:49;;;;;;;18.07;12.17;;;4.50;99.90;;;;;;5033646;28;21036;-59
2024/02/27 06:01:18;;;;;;;16.37;11.63;;;4.50;99.90;;;;;;5034850;28;20562;-59
2024/02/27 06:03:46;;;;;;;16.33;11.70;;;4.50;99.90;;;;;;5027490;28;20501;-59
2024/02/27 06:06:16;;;;;;;16.03;11.23;;;4.50;99.90;;;;;;5032347;28;22255;-59
2024/02/27 06:08:44;;;;;;;16.63;10.97;;;4.50;99.90;;;;;;5029766;28;20861;-58
2024/02/27 06:11:12;;;;;;;15.07;11.17;;;4.50;99.90;;;;;;5037065;28;20465;-59
2024/02/27 06:13:42;;;;;;;18.37;13.40;;;4.50;99.90;;;;;;5031293;28;20471;-58
2024/02/27 06:16:11;;;;;;;19.00;12.20;;;4.50;99.90;;;;;;5021529;28;20667;-59
2024/02/27 06:18:42;;;;;;;16.70;12.70;;;4.50;99.90;;;;;;5031121;28;21133;-58
2024/02/27 06:23:57;;;;;;;19.13;12.37;;;4.50;99.90;;;;;;5031260;28;20560;-59
2024/02/27 06:26:26;;;;;;;16.83;11.80;;;4.40;99.90;;;;;;5030873;28;20709;-59
2024/02/27 06:28:54;;;;;;;17.83;12.60;;;4.50;99.90;;;;;;5031630;28;20487;-58
2024/02/27 06:31:22;;;;;;;17.30;12.63;;;4.50;99.90;;;;;;5034673;28;20585;-58
2024/02/27 06:33:50;;;;;;;14.77;11.90;;;4.50;99.90;;;;;;5036506;28;21304;-58
2024/02/27 06:36:18;;;;;;;16.20;12.17;;;4.50;99.90;;;;;;5033341;28;20488;-58
2024/02/27 06:38:46;;;;;;;19.20;13.20;;;4.40;99.90;;;;;;5030783;28;20522;-58
2024/02/27 06:41:15;;;;;;;17.47;12.30;;;4.40;99.90;;;;;;5034007;28;20470;-59
2024/02/27 06:43:43;;;;;;;17.00;12.70;;;4.40;99.90;;;;;;5035889;28;21103;-58
2024/02/27 06:46:11;;;;;;;16.47;11.90;;;4.40;99.90;;;;;;5031401;28;20589;-59
2024/02/27 06:48:39;;;;;;;17.27;12.00;;;4.40;99.90;;;;;;5030352;28;20494;-59
2024/02/27 06:51:08;;;;;;;18.50;12.93;;;4.40;99.90;;;;;;5034340;28;20719;-59
2024/02/27 06:53:37;;;;;;;16.10;11.93;;;4.40;99.90;;;;;;5035276;28;20524;-59
2024/02/27 06:56:05;;;;;;;19.00;13.30;;;4.40;99.90;;;;;;5037924;28;20569;-59
2024/02/27 06:58:35;;;;;;;17.87;12.80;;;4.40;99.90;;;;;;5034571;28;20494;-58
2024/02/27 07:01:03;;;;;;;19.17;13.17;;;4.40;99.90;;;;;;5036162;28;20616;-59
2024/02/27 07:03:31;;;;;;;16.67;13.13;;;4.50;99.90;;;;;;5037265;28;21014;-59
2024/02/27 07:06:00;;;;;;;19.53;12.90;;;4.40;99.90;;;;;;5033019;28;20572;-59
2024/02/27 07:08:29;;;;;;;18.23;13.53;;;4.40;99.90;;;;;;5033669;28;20497;-58
2024/02/27 07:10:57;;;;;;;18.60;13.37;;;4.40;99.90;;;;;;5036573;28;21054;-59
2024/02/27 07:13:25;;;;;;;18.00;13.50;;;4.40;99.90;;;;;;5037430;28;20458;-59
2024/02/27 07:15:54;;;;;;;17.53;13.93;;;4.40;99.90;;;;;;5034773;28;20483;-60
2024/02/27 07:18:22;;;;;;;15.17;11.47;;;4.40;99.90;;;;;;5036511;28;20510;-59
2024/02/27 07:20:50;;;;;;;16.13;12.50;;;4.40;99.90;;;;;;5036991;28;20857;-58
2024/02/27 07:23:18;;;;;;;15.20;11.50;;;4.40;99.90;;;;;;5030355;28;20589;-58
2024/02/27 07:25:46;;;;;;;16.03;12.13;;;4.40;99.90;;;;;;5032905;28;20486;-58
2024/02/27 07:28:14;;;;;;;12.40;10.10;;;4.40;99.90;;;;;;5034749;28;20649;-57
2024/02/27 07:30:55;;;;;;;15.23;11.40;;;4.50;99.90;;;;;;5034326;28;20471;-58
2024/02/27 07:33:23;;;;;;;13.20;10.73;;;4.40;99.90;;;;;;5037297;28;21021;-58
2024/02/27 07:35:51;;;;;;;13.70;11.03;;;4.50;99.90;;;;;;5035358;28;20483;-58
2024/02/27 07:38:19;;;;;;;12.10;10.03;;;4.40;99.90;;;;;;5033992;28;20490;-58
2024/02/27 07:40:47;;;;;;;13.70;10.53;;;4.40;99.90;;;;;;5032724;28;20937;-58
2024/02/27 07:43:15;;;;;;;14.60;10.70;;;4.40;99.90;;;;;;5031890;28;21094;-58
2024/02/27 07:45:43;;;;;;;16.40;11.80;;;4.40;99.90;;;;;;5029949;28;20492;-58
2024/02/27 07:48:13;;;;;;;12.83;10.87;;;4.40;99.90;;;;;;5033284;28;20548;-58
2024/02/27 07:50:41;;;;;;;14.63;11.20;;;4.40;99.90;;;;;;5034456;28;20482;-58
2024/02/27 07:53:09;;;;;;;13.20;9.70;;;4.40;99.90;;;;;;5035869;28;20987;-58
2024/02/27 07:55:38;;;;;;;13.60;10.93;;;4.50;99.90;;;;;;5028643;28;20954;-58
2024/02/27 07:58:06;;;;;;;14.20;10.33;;;4.50;99.90;;;;;;5034592;28;20602;-58
2024/02/27 08:00:34;;;;;;;13.40;9.97;;;4.50;99.90;;;;;;5035102;28;20521;-58
2024/02/27 08:03:03;;;;;;;14.67;10.67;;;4.50;99.90;;;;;;5031818;28;20475;-58
2024/02/27 08:05:33;;;;;;;15.60;10.80;;;4.40;99.90;;;;;;5035786;28;20569;-58
2024/02/27 08:08:01;;;;;;;14.20;10.93;;;4.50;99.90;;;;;;5033115;28;20495;-58
2024/02/27 08:10:29;;;;;;;13.33;11.67;;;4.40;99.90;;;;;;5033932;28;20554;-58
2024/02/27 08:12:57;;;;;;;13.07;11.27;;;4.40;99.90;;;;;;5037710;28;20478;-58
2024/02/27 08:15:25;;;;;;;12.47;10.23;;;4.40;99.90;;;;;;5033634;28;20482;-58
2024/02/27 08:17:53;;;;;;;15.10;11.40;;;4.40;99.90;;;;;;5039100;28;20506;-58
2024/02/27 08:20:22;;;;;;;14.50;10.47;;;4.50;99.90;;;;;;5036257;28;20497;-57
2024/02/27 08:22:51;;;;;;;14.07;10.80;;;4.50;99.90;;;;;;5042254;28;20466;-58
2024/02/27 08:25:19;;;;;;;13.43;10.30;;;4.50;99.90;;;;;;5038088;28;20526;-59
2024/02/27 08:27:47;;;;;;;12.90;10.20;;;4.50;99.90;;;;;;5037447;28;20505;-58
2024/02/27 08:30:16;;;;;;;12.77;10.67;;;4.50;99.90;;;;;;5039000;28;20471;-58
2024/02/27 08:32:44;;;;;;;13.20;10.87;;;4.60;99.90;;;;;;5037378;28;20774;-57
2024/02/27 08:35:14;;;;;;;14.50;10.50;;;4.60;99.90;;;;;;5036116;28;20557;-58
2024/02/27 08:37:42;;;;;;;14.40;10.87;;;4.60;99.90;;;;;;5033637;28;20493;-58
2024/02/27 08:40:12;;;;;;;13.57;10.73;;;4.60;99.90;;;;;;5032425;28;20472;-58
2024/02/27 08:42:41;;;;;;;12.50;10.83;;;4.60;99.90;;;;;;5033584;28;20581;-56
2024/02/27 08:45:10;;;;;;;11.63;9.97;;;4.60;99.90;;;;;;5032870;28;20494;-58
2024/02/27 08:47:38;;;;;;;12.27;9.93;;;4.60;99.90;;;;;;5038464;28;20474;-58
2024/02/27 08:50:06;;;;;;;12.73;10.27;;;4.60;99.90;;;;;;5034193;28;20834;-58
2024/02/27 08:52:35;;;;;;;13.93;10.97;;;4.60;99.90;;;;;;5037443;28;20478;-58
2024/02/27 08:55:03;;;;;;;11.40;9.70;;;4.60;99.90;;;;;;5034672;28;20502;-58
2024/02/27 08:57:32;;;;;;;11.37;9.77;;;4.60;99.90;;;;;;5037002;28;20519;-58
2024/02/27 09:00:00;;;;;;;12.83;10.43;;;4.60;99.90;;;;;;5035848;28;20983;-58
2024/02/27 09:02:29;;;;;;;14.23;11.83;;;4.60;99.90;;;;;;5039602;28;20470;-57
2024/02/27 09:04:57;;;;;;;13.33;10.80;;;4.60;99.90;;;;;;5034333;28;21023;-57
2024/02/27 09:07:25;;;;;;;12.07;10.73;;;4.60;99.90;;;;;;5038285;28;20586;-58
2024/02/27 09:09:53;;;;;;;12.97;10.70;;;4.60;99.90;;;;;;5028699;28;20467;-58
2024/02/27 09:12:23;;;;;;;13.27;11.63;;;4.60;99.90;;;;;;5038062;28;20466;-58
2024/02/27 09:14:53;;;;;;;13.20;11.63;;;4.60;99.90;;;;;;5037870;28;20474;-58
2024/02/27 09:17:21;;;;;;;14.20;11.90;;;4.70;99.90;;;;;;5035933;28;20546;-57
2024/02/27 09:19:50;;;;;;;13.67;11.07;;;4.70;99.90;;;;;;5038911;28;20568;-58
2024/02/27 09:22:18;;;;;;;15.20;11.50;;;4.80;99.90;;;;;;5035306;28;20479;-58
2024/02/27 09:24:46;;;;;;;13.60;10.93;;;4.80;99.90;;;;;;5037447;28;20594;-58
2024/02/27 09:27:15;;;;;;;13.87;11.27;;;4.80;99.90;;;;;;5037078;28;21106;-57
2024/02/27 09:29:44;;;;;;;13.73;12.17;;;4.80;99.90;;;;;;5033672;28;20585;-57
2024/02/27 09:32:16;;;;;;;13.80;11.73;;;4.80;99.90;;;;;;5036059;28;20474;-58
2024/02/27 09:34:47;;;;;;;12.73;11.20;;;4.80;99.90;;;;;;5039781;28;20466;-58
2024/02/27 09:37:15;;;;;;;14.53;11.90;;;4.90;99.90;;;;;;5029534;28;20490;-58
2024/02/27 09:39:43;;;;;;;13.80;11.47;;;4.90;99.90;;;;;;5035565;28;20610;-58
2024/02/27 09:42:25;;;;;;;13.10;11.70;;;4.90;99.90;;;;;;5032505;28;20473;-57
2024/02/27 09:45:05;;;;;;;14.53;11.90;;;4.90;99.90;;;;;;5035845;28;20505;-58
2024/02/27 09:47:38;;;;;;;12.30;11.00;;;4.90;99.90;;;;;;5033578;28;20483;-58
2024/02/27 09:50:09;;;;;;;14.47;11.77;;;4.90;99.90;;;;;;5038240;28;20503;-58
2024/02/27 09:52:39;;;;;;;15.27;12.53;;;4.90;99.90;;;;;;5034609;28;20523;-57
2024/02/27 09:55:09;;;;;;;14.27;12.77;;;5.00;99.90;;;;;;5033998;28;20645;-58
2024/02/27 09:57:37;;;;;;;13.33;11.90;;;5.00;99.90;;;;;;5038798;28;20525;-58
2024/02/27 10:00:07;;;;;;;15.23;12.20;;;5.00;99.90;;;;;;5037022;28;20475;-58
2024/02/27 10:02:37;;;;;;;16.77;12.53;;;5.00;99.90;;;;;;5036735;28;20920;-58
2024/02/27 10:05:08;;;;;;;12.23;10.93;;;5.10;99.90;;;;;;5031016;28;20528;-58
2024/02/27 10:07:39;;;;;;;13.07;11.20;;;5.10;99.90;;;;;;5036213;28;20476;-58
2024/02/27 10:10:10;;;;;;;12.87;10.67;;;5.10;99.90;;;;;;5034036;28;20475;-57
2024/02/27 10:12:38;;;;;;;12.50;11.17;;;5.10;99.90;;;;;;5037940;28;20524;-58
2024/02/27 10:15:07;;;;;;;12.67;11.37;;;5.10;99.90;;;;;;5037011;28;20474;-58
2024/02/27 10:17:38;;;;;;;12.87;10.93;;;5.10;99.90;;;;;;5037334;28;20481;-58
2024/02/27 10:20:10;;;;;;;11.97;10.70;;;5.10;99.90;;;;;;5036694;28;20475;-57
2024/02/27 10:22:40;;;;;;;11.87;10.63;;;5.10;99.90;;;;;;5036419;28;20470;-58
2024/02/27 10:25:11;;;;;;;10.90;9.63;;;5.20;99.90;;;;;;5029555;28;20502;-57
2024/02/27 10:27:42;;;;;;;11.40;10.20;;;5.20;99.90;;;;;;5033437;28;20470;-57
2024/02/27 10:30:12;;;;;;;12.27;10.50;;;5.20;99.90;;;;;;5037505;28;20967;-58
2024/02/27 10:32:42;;;;;;;11.40;9.97;;;5.20;99.90;;;;;;5039791;28;21034;-58
2024/02/27 10:35:13;;;;;;;13.90;10.43;;;5.30;99.90;;;;;;5034368;28;20470;-58
2024/02/27 10:37:43;;;;;;;12.03;10.80;;;5.30;99.90;;;;;;5035150;28;20548;-58
2024/02/27 10:40:12;;;;;;;16.03;10.97;;;5.30;99.90;;;;;;5035887;28;20474;-58
2024/02/27 10:42:41;;;;;;;12.40;10.97;;;5.30;99.90;;;;;;5037336;28;20897;-58
2024/02/27 10:45:10;;;;;;;36.93;27.87;;;5.40;99.90;;;;;;5032247;28;20498;-57
2024/02/27 10:47:39;;;;;;;25.07;19.17;;;5.40;99.90;;;;;;5033677;28;20467;-58
2024/02/27 10:50:11;;;;;;;14.60;12.27;;;5.40;99.90;;;;;;5034598;28;21006;-57
2024/02/27 10:52:40;;;;;;;12.77;10.40;;;5.40;99.90;;;;;;5035852;28;20475;-58
2024/02/27 10:55:09;;;;;;;12.03;10.10;;;5.50;99.90;;;;;;5034788;28;20748;-58
2024/02/27 10:57:38;;;;;;;11.90;10.70;;;5.50;99.90;;;;;;5037491;28;20467;-58
2024/02/27 11:00:11;;;;;;;12.53;10.80;;;5.50;99.90;;;;;;5034334;28;20528;-58
2024/02/27 11:02:49;;;;;;;10.80;9.70;;;5.50;99.90;;;;;;5037713;28;20472;-58
2024/02/27 11:05:22;;;;;;;12.17;10.57;;;5.60;99.90;;;;;;5036119;28;20490;-58
2024/02/27 11:07:51;;;;;;;10.70;9.60;;;5.60;99.90;;;;;;5034281;28;20918;-58
2024/02/27 11:10:19;;;;;;;12.03;10.17;;;5.60;99.90;;;;;;5036958;28;20468;-59
2024/02/27 11:12:49;;;;;;;10.80;9.70;;;5.60;99.90;;;;;;5036318;28;20485;-58
2024/02/27 11:15:18;;;;;;;11.33;9.87;;;5.70;99.90;;;;;;5034422;28;20484;-59
2024/02/27 11:17:52;;;;;;;12.43;11.23;;;5.70;99.90;;;;;;5035939;28;20612;-58
2024/02/27 11:20:22;;;;;;;12.77;11.10;;;5.70;99.90;;;;;;5037123;28;20550;-58
2024/02/27 11:22:51;;;;;;;11.40;10.00;;;5.80;99.90;;;;;;5034430;28;20521;-58
2024/02/27 11:25:20;;;;;;;12.60;10.90;;;5.80;99.90;;;;;;5034711;28;20573;-58
2024/02/27 11:27:49;;;;;;;13.37;10.60;;;5.80;99.90;;;;;;5036090;28;20510;-58
2024/02/27 11:30:20;;;;;;;15.23;12.60;;;5.90;99.90;;;;;;5035041;28;20466;-58
2024/02/27 11:32:48;;;;;;;43.63;34.03;;;5.80;99.90;;;;;;5033559;28;20470;-58
2024/02/27 11:35:16;;;;;;;20.47;16.60;;;5.90;99.90;;;;;;5035340;28;20464;-58
2024/02/27 11:37:49;;;;;;;13.40;11.40;;;6.00;99.90;;;;;;5026763;28;20498;-58
2024/02/27 11:40:47;;;;;;;12.97;11.07;;;5.90;99.90;;;;;;5035576;28;20502;-57
2024/02/27 11:43:16;;;;;;;11.23;10.13;;;6.00;99.90;;;;;;5036633;28;20979;-57
2024/02/27 11:45:44;;;;;;;11.50;10.30;;;6.00;99.90;;;;;;5031859;28;20593;-57
2024/02/27 11:48:12;;;;;;;11.60;10.50;;;6.00;99.90;;;;;;5033785;28;20631;-58
2024/02/27 11:50:47;;;;;;;11.50;10.30;;;6.00;99.90;;;;;;5034639;28;20467;-57
2024/02/27 11:53:33;;;;;;;11.13;9.77;;;5.90;99.90;;;;;;5027799;28;20564;-58
2024/02/27 11:56:02;;;;;;;11.53;10.40;;;6.00;99.90;;;;;;5029961;28;20573;-58
2024/02/27 11:58:30;;;;;;;12.23;10.70;;;6.00;99.90;;;;;;5033732;28;20577;-58
2024/02/27 12:00:58;;;;;;;10.47;9.40;;;6.00;99.90;;;;;;5035909;28;20905;-58
2024/02/27 12:03:26;;;;;;;11.50;10.43;;;6.00;99.90;;;;;;5036096;28;20469;-58
2024/02/27 12:06:03;;;;;;;11.60;10.47;;;6.10;99.90;;;;;;5033477;28;20511;-58
2024/02/27 12:08:33;;;;;;;11.40;10.30;;;6.10;99.90;;;;;;5036418;28;21072;-58
2024/02/27 12:11:02;;;;;;;11.50;10.33;;;6.10;99.90;;;;;;5035779;28;20545;-57
2024/02/27 12:13:31;;;;;;;12.37;11.10;;;6.20;99.90;;;;;;5034611;28;20463;-58
2024/02/27 12:16:00;;;;;;;12.73;10.53;;;6.20;99.90;;;;;;5031788;28;20486;-58
2024/02/27 12:18:29;;;;;;;12.10;10.90;;;6.20;99.90;;;;;;5034723;28;20487;-58
2024/02/27 12:21:00;;;;;;;12.27;10.97;;;6.30;99.90;;;;;;5030715;28;20854;-57
2024/02/27 12:23:29;;;;;;;13.60;11.60;;;6.40;99.90;;;;;;5030681;28;20474;-58
2024/02/27 12:26:00;;;;;;;12.40;11.10;;;6.40;99.90;;;;;;5036311;28;20486;-57
2024/02/27 12:28:30;;;;;;;12.87;10.63;;;6.50;99.90;;;;;;5031803;28;20505;-57
2024/02/27 12:30:59;;;;;;;11.27;10.17;;;6.50;99.90;;;;;;5033131;28;20544;-58
2024/02/27 12:33:27;;;;;;;11.70;10.50;;;6.50;99.90;;;;;;5032337;28;20476;-57
2024/02/27 12:35:55;;;;;;;11.23;10.10;;;6.50;99.90;;;;;;5029814;28;20494;-57
2024/02/27 12:38:23;;;;;;;10.93;9.83;;;6.50;99.90;;;;;;5032534;28;21003;-58
2024/02/27 12:40:51;;;;;;;9.87;8.97;;;6.50;99.90;;;;;;5034558;28;20553;-58
2024/02/27 12:43:21;;;;;;;10.43;9.33;;;6.60;99.90;;;;;;5031250;28;20474;-58
2024/02/27 12:45:52;;;;;;;11.23;9.77;;;6.70;99.90;;;;;;5033968;28;20581;-58
2024/02/27 12:48:20;;;;;;;10.87;9.73;;;6.70;99.90;;;;;;5034922;28;20491;-58
2024/02/27 12:50:49;;;;;;;17.83;15.97;;;7.10;99.90;;;;;;5032754;28;20470;-58